Time;durP1;ratioP1;P1;durP2;ratioP2;P2;SDS_P1;SDS_P2;PMS_P1;PMS_P2;Temp;Humidity;BMP_temperature;BMP_pressure;BME280_temperature;BME280_humidity;BME280_pressure;Samples;Min_cycle;Max_cycle;Signal;HPM_P1;HPM_P2
2023/11/23 00:00:11;;;;;;;;;;;;;;;1.97;100.00;96608.28;10587633;27;2585;-68
2023/11/23 00:05:14;;;;;;;;;;;;;;;1.95;100.00;96594.44;10570613;27;2579;-72
2023/11/23 00:10:16;;;;;;;;;;;;;;;2.03;100.00;96604.84;10592304;27;2601;-69
2023/11/23 00:15:19;;;;;;;;;;;;;;;2.08;100.00;96599.78;10590490;27;2631;-72
2023/11/23 00:20:21;;;;;;;;;;;;;;;2.06;100.00;96593.03;10585639;27;2616;-69
2023/11/23 00:25:27;;;;;;;;;;;;;;;2.06;100.00;96593.84;10569664;27;2621;-68
2023/11/23 00:30:31;;;;;;;;;;;;;;;2.02;100.00;96597.09;10590828;27;2699;-69
2023/11/23 00:35:34;;;;;;;;;;;;;;;1.84;100.00;96610.91;10593603;27;2623;-68
2023/11/23 00:40:36;;;;;;;;;;;;;;;1.89;100.00;96613.78;10591140;27;2632;-68
2023/11/23 00:45:39;;;;;;;;;;;;;;;2.03;100.00;96607.50;10589678;27;2615;-69
2023/11/23 00:50:41;;;;;;;;;;;;;;;2.10;100.00;96603.06;10593220;27;2710;-67
2023/11/23 00:55:46;;;;;;;;;;;;;;;2.10;100.00;96600.41;10596126;27;2624;-69
2023/11/23 01:00:49;;;;;;;;;;;;;;;2.01;100.00;96606.88;10589235;27;2641;-70
2023/11/23 01:05:52;;;;;;;;;;;;;;;2.10;100.00;96616.31;10592696;27;2667;-69
2023/11/23 01:10:54;;;;;;;;;;;;;;;1.99;100.00;96627.50;10582836;27;2625;-68
2023/11/23 01:15:57;;;;;;;;;;;;;;;1.76;100.00;96626.97;10581665;27;4622;-69
2023/11/23 01:20:59;;;;;;;;;;;;;;;1.71;100.00;96645.31;10583190;27;2575;-69
2023/11/23 01:26:02;;;;;;;;;;;;;;;1.70;100.00;96648.97;10585807;27;2567;-69
2023/11/23 01:31:05;;;;;;;;;;;;;;;1.52;100.00;96654.78;10590012;27;2551;-69
2023/11/23 01:36:07;;;;;;;;;;;;;;;1.59;100.00;96661.78;10589344;27;2579;-69
2023/11/23 01:41:10;;;;;;;;;;;;;;;1.57;100.00;96660.31;10595991;27;2592;-68
2023/11/23 01:46:13;;;;;;;;;;;;;;;1.53;100.00;96657.25;10593738;27;2639;-69
2023/11/23 01:51:15;;;;;;;;;;;;;;;1.62;100.00;96657.91;10590078;27;2639;-68
2023/11/23 01:56:18;;;;;;;;;;;;;;;1.66;100.00;96663.66;10593226;27;2662;-69
2023/11/23 02:01:21;;;;;;;;;;;;;;;1.54;100.00;96653.59;10564669;27;2625;-69
2023/11/23 02:06:24;;;;;;;;;;;;;;;1.67;100.00;96652.03;10591292;27;2637;-76
2023/11/23 02:11:26;;;;;;;;;;;;;;;1.61;100.00;96648.31;10591170;27;2673;-70
2023/11/23 02:16:29;;;;;;;;;;;;;;;1.74;100.00;96621.06;10588675;27;4737;-69
2023/11/23 02:21:33;;;;;;;;;;;;;;;1.78;100.00;96630.25;10589504;27;2646;-67
2023/11/23 02:26:36;;;;;;;;;;;;;;;1.88;100.00;96622.75;10593813;27;2617;-68
2023/11/23 02:31:39;;;;;;;;;;;;;;;1.85;100.00;96617.88;10589651;27;2764;-69
2023/11/23 02:36:41;;;;;;;;;;;;;;;1.87;100.00;96611.34;10587781;27;2595;-67
2023/11/23 02:41:46;;;;;;;;;;;;;;;1.78;100.00;96627.59;10585603;27;2707;-69
2023/11/23 02:46:49;;;;;;;;;;;;;;;1.71;100.00;96626.75;10586222;27;2658;-68
2023/11/23 02:51:52;;;;;;;;;;;;;;;1.82;100.00;96631.50;10593758;27;2607;-68
2023/11/23 02:56:54;;;;;;;;;;;;;;;1.86;100.00;96619.50;10587900;27;2605;-70
2023/11/23 03:01:57;;;;;;;;;;;;;;;2.02;100.00;96597.91;10589271;27;2686;-68
2023/11/23 03:07:00;;;;;;;;;;;;;;;2.00;100.00;96607.09;10593268;27;2644;-69
2023/11/23 03:12:02;;;;;;;;;;;;;;;1.84;100.00;96605.59;10590528;27;4648;-70
2023/11/23 03:17:05;;;;;;;;;;;;;;;1.81;100.00;96609.47;10584997;27;2607;-69
2023/11/23 03:22:09;;;;;;;;;;;;;;;1.94;100.00;96607.88;10591376;27;2722;-67
2023/11/23 03:27:12;;;;;;;;;;;;;;;1.86;100.00;96614.19;10588135;27;2692;-69
2023/11/23 03:32:15;;;;;;;;;;;;;;;1.78;100.00;96641.69;10591270;27;2622;-69
2023/11/23 03:37:18;;;;;;;;;;;;;;;1.72;100.00;96638.97;10595039;27;2579;-68
2023/11/23 03:42:20;;;;;;;;;;;;;;;1.72;100.00;96638.97;10590983;27;2547;-69
2023/11/23 03:47:23;;;;;;;;;;;;;;;1.72;100.00;96638.97;10587549;27;2640;-70
2023/11/23 03:52:26;;;;;;;;;;;;;;;1.56;100.00;96635.66;10585817;27;2683;-69
2023/11/23 03:57:28;;;;;;;;;;;;;;;1.47;100.00;96641.31;10591173;27;2552;-68
2023/11/23 04:02:31;;;;;;;;;;;;;;;1.40;100.00;96646.59;10586273;27;2699;-69
2023/11/23 04:07:34;;;;;;;;;;;;;;;1.32;100.00;96650.19;10590212;27;2583;-69
2023/11/23 04:12:37;;;;;;;;;;;;;;;1.40;100.00;96651.88;10586872;27;4681;-68
2023/11/23 04:17:39;;;;;;;;;;;;;;;1.41;100.00;96642.91;10591315;27;2604;-72
2023/11/23 04:22:42;;;;;;;;;;;;;;;1.41;100.00;96636.81;10593347;27;2647;-70
2023/11/23 04:27:45;;;;;;;;;;;;;;;1.42;100.00;96631.31;10595588;27;2575;-69
2023/11/23 04:32:48;;;;;;;;;;;;;;;1.57;100.00;96641.78;10589759;27;2649;-70
2023/11/23 04:37:51;;;;;;;;;;;;;;;1.59;100.00;96635.28;10594459;27;2693;-72
2023/11/23 04:42:54;;;;;;;;;;;;;;;1.60;100.00;96626.31;10591566;27;2596;-71
2023/11/23 04:48:00;;;;;;;;;;;;;;;1.70;100.00;96617.16;10594615;27;2663;-68
2023/11/23 04:53:03;;;;;;;;;;;;;;;1.81;100.00;96630.69;10589884;27;3127;-71
2023/11/23 04:58:07;;;;;;;;;;;;;;;1.75;100.00;96612.09;10591398;27;3138;-71
2023/11/23 05:03:10;;;;;;;;;;;;;;;1.72;100.00;96613.31;10588414;27;2605;-71
2023/11/23 05:08:13;;;;;;;;;;;;;;;1.76;100.00;96608.44;10590112;27;2686;-74
2023/11/23 05:13:16;;;;;;;;;;;;;;;1.64;100.00;96610.81;10599632;27;4515;-75
2023/11/23 05:18:19;;;;;;;;;;;;;;;1.68;100.00;96632.47;10602140;27;2645;-69
2023/11/23 05:23:22;;;;;;;;;;;;;;;1.62;100.00;96628.75;10601996;27;2607;-69
2023/11/23 05:28:26;;;;;;;;;;;;;;;1.62;100.00;96624.28;10596648;27;2596;-71
2023/11/23 05:33:29;;;;;;;;;;;;;;;1.52;100.00;96634.41;10604796;27;2706;-69
2023/11/23 05:38:32;;;;;;;;;;;;;;;1.52;100.00;96629.09;10595963;27;2668;-69
2023/11/23 05:43:36;;;;;;;;;;;;;;;1.49;100.00;96637.47;10603496;27;2644;-69
2023/11/23 05:48:38;;;;;;;;;;;;;;;1.57;100.00;96639.13;10600336;27;2613;-69
2023/11/23 05:53:42;;;;;;;;;;;;;;;1.55;100.00;96620.78;10602254;27;2642;-69
2023/11/23 05:58:45;;;;;;;;;;;;;;;1.49;100.00;96613.59;10596984;27;2583;-68
2023/11/23 06:03:47;;;;;;;;;;;;;;;1.53;100.00;96604.25;10590514;27;2877;-69
2023/11/23 06:08:50;;;;;;;;;;;;;;;1.74;100.00;96597.22;10596025;27;2702;-68
2023/11/23 06:13:54;;;;;;;;;;;;;;;1.79;100.00;96597.44;10589564;27;4730;-72
2023/11/23 06:18:56;;;;;;;;;;;;;;;1.92;100.00;96600.16;10589736;27;2613;-71
2023/11/23 06:24:03;;;;;;;;;;;;;;;2.03;100.00;96604.03;10591035;27;2618;-74
2023/11/23 06:29:06;;;;;;;;;;;;;;;2.04;100.00;96603.84;10591447;27;2591;-74
2023/11/23 06:34:10;;;;;;;;;;;;;;;2.12;100.00;96598.38;10592336;27;2626;-71
2023/11/23 06:39:12;;;;;;;;;;;;;;;2.16;100.00;96609.38;10596103;27;2953;-69
2023/11/23 06:44:16;;;;;;;;;;;;;;;2.34;100.00;96606.16;10591962;27;2667;-68
2023/11/23 06:49:19;;;;;;;;;;;;;;;2.23;100.00;96609.38;10577132;27;2592;-68
2023/11/23 06:54:22;;;;;;;;;;;;;;;2.24;100.00;96595.13;10593297;27;2677;-67
2023/11/23 06:59:25;;;;;;;;;;;;;;;2.22;100.00;96599.78;10589565;27;2579;-67
2023/11/23 07:04:28;;;;;;;;;;;;;;;2.37;100.00;96606.59;10594395;27;2567;-69
2023/11/23 07:09:30;;;;;;;;;;;;;;;2.46;100.00;96593.94;10585737;27;2548;-70
2023/11/23 07:14:33;;;;;;;;;;;;;;;2.46;100.00;96593.94;10590088;27;4697;-70
2023/11/23 07:19:35;;;;;;;;;;;;;;;2.58;100.00;96579.03;10585862;27;2564;-73
2023/11/23 07:24:38;;;;;;;;;;;;;;;2.63;100.00;96573.94;10591835;27;2765;-69
2023/11/23 07:29:42;;;;;;;;;;;;;;;2.73;100.00;96578.81;10590268;27;2606;-71
2023/11/23 07:34:45;;;;;;;;;;;;;;;2.89;100.00;96577.63;10572066;27;2625;-71
2023/11/23 07:39:49;;;;;;;;;;;;;;;3.00;100.00;96569.03;10590030;27;2611;-69
2023/11/23 07:44:54;;;;;;;;;;;;;;;3.16;100.00;96555.28;10591107;27;2661;-68
2023/11/23 07:49:58;;;;;;;;;;;;;;;3.02;100.00;96552.88;10591267;27;2629;-69
2023/11/23 07:55:01;;;;;;;;;;;;;;;3.16;100.00;96547.31;10589397;27;2605;-70
2023/11/23 08:00:04;;;;;;;;;;;;;;;3.16;100.00;96549.16;10589360;27;2651;-69
2023/11/23 08:05:08;;;;;;;;;;;;;;;3.32;100.00;96556.69;10593184;27;2623;-69
2023/11/23 08:10:15;;;;;;;;;;;;;;;3.45;100.00;96566.47;10592960;27;2595;-74
2023/11/23 08:15:19;;;;;;;;;;;;;;;3.51;100.00;96565.66;10595065;27;4719;-70
2023/11/23 08:20:26;;;;;;;;;;;;;;;3.42;100.00;96569.53;10592514;27;2636;-70
2023/11/23 08:25:30;;;;;;;;;;;;;;;3.36;100.00;96562.41;10590118;27;2763;-68
2023/11/23 08:30:32;;;;;;;;;;;;;;;3.72;100.00;96565.34;10592786;27;2744;-69
2023/11/23 08:35:35;;;;;;;;;;;;;;;3.67;100.00;96565.16;10591706;27;2527;-69
2023/11/23 08:40:39;;;;;;;;;;;;;;;3.93;100.00;96561.56;10570563;27;2621;-68
2023/11/23 08:45:41;;;;;;;;;;;;;;;3.99;100.00;96575.88;10595633;27;2647;-68
2023/11/23 08:50:44;;;;;;;;;;;;;;;4.20;100.00;96583.56;10579407;27;2724;-69
2023/11/23 08:55:48;;;;;;;;;;;;;;;4.46;100.00;96581.75;10598140;27;2651;-69
2023/11/23 09:00:51;;;;;;;;;;;;;;;4.45;100.00;96585.41;10594466;27;2711;-69
2023/11/23 09:05:53;;;;;;;;;;;;;;;4.36;100.00;96582.22;10593445;27;2642;-72
2023/11/23 09:10:57;;;;;;;;;;;;;;;4.67;100.00;96585.91;10599105;27;2582;-68
2023/11/23 09:15:59;;;;;;;;;;;;;;;4.85;100.00;96588.63;10564188;27;4685;-68
2023/11/23 09:21:05;;;;;;;;;;;;;;;5.09;100.00;96584.31;10594918;27;2618;-68
2023/11/23 09:26:08;;;;;;;;;;;;;;;5.57;100.00;96570.31;10599590;27;2667;-67
2023/11/23 09:31:13;;;;;;;;;;;;;;;5.94;100.00;96566.59;10575134;27;2713;-69
2023/11/23 09:36:16;;;;;;;;;;;;;;;5.46;100.00;96576.38;10577534;27;2746;-69
2023/11/23 09:41:19;;;;;;;;;;;;;;;4.75;100.00;96570.47;10594325;27;2677;-70
2023/11/23 09:46:22;;;;;;;;;;;;;;;4.87;100.00;96581.22;10591935;27;2671;-70
2023/11/23 09:51:25;;;;;;;;;;;;;;;4.64;100.00;96570.34;10589342;27;2627;-68
2023/11/23 09:56:27;;;;;;;;;;;;;;;4.22;100.00;96557.53;10589641;27;2701;-70
2023/11/23 10:01:30;;;;;;;;;;;;;;;4.27;100.00;96538.25;10594388;27;2634;-68
2023/11/23 10:06:34;;;;;;;;;;;;;;;4.30;100.00;96538.63;10593801;27;2599;-69
2023/11/23 10:11:39;;;;;;;;;;;;;;;4.25;100.00;96538.47;10596276;27;2582;-68
2023/11/23 10:16:42;;;;;;;;;;;;;;;4.22;100.00;96516.78;10592713;27;2599;-76
2023/11/23 10:21:45;;;;;;;;;;;;;;;4.31;100.00;96505.66;10587903;27;2657;-68
2023/11/23 10:26:47;;;;;;;;;;;;;;;4.08;100.00;96492.13;10573643;27;2639;-69
2023/11/23 10:31:50;;;;;;;;;;;;;;;4.00;100.00;96495.84;10592985;27;2556;-68
2023/11/23 10:36:53;;;;;;;;;;;;;;;4.06;100.00;96492.31;10588392;27;2627;-71
2023/11/23 10:41:56;;;;;;;;;;;;;;;4.10;100.00;96482.06;10590940;27;2569;-68
2023/11/23 10:47:03;;;;;;;;;;;;;;;4.16;100.00;96475.09;10590229;27;2726;-68
2023/11/23 10:52:08;;;;;;;;;;;;;;;4.27;100.00;96459.22;10591394;27;2622;-68
2023/11/23 10:57:11;;;;;;;;;;;;;;;4.28;100.00;96454.72;10592857;27;2663;-69
2023/11/23 11:02:13;;;;;;;;;;;;;;;4.32;100.00;96430.09;10591381;27;2604;-68
2023/11/23 11:07:17;;;;;;;;;;;;;;;4.33;100.00;96422.97;10589009;27;2567;-73
2023/11/23 11:12:20;;;;;;;;;;;;;;;4.31;100.00;96409.03;10571794;27;4602;-69
2023/11/23 11:17:24;;;;;;;;;;;;;;;4.40;100.00;96406.91;10588184;27;2588;-69
2023/11/23 11:22:28;;;;;;;;;;;;;;;4.39;100.00;96384.81;10589591;27;2651;-67
2023/11/23 11:27:30;;;;;;;;;;;;;;;4.49;100.00;96365.66;10589960;27;2698;-69
2023/11/23 11:32:35;;;;;;;;;;;;;;;4.56;100.00;96342.44;10574251;27;2603;-69
2023/11/23 11:37:37;;;;;;;;;;;;;;;4.58;100.00;96335.03;10590919;27;2617;-72
2023/11/23 11:42:41;;;;;;;;;;;;;;;4.68;100.00;96319.38;10578588;27;2713;-67
2023/11/23 11:47:44;;;;;;;;;;;;;;;4.81;100.00;96326.38;10588531;27;2552;-68
2023/11/23 11:52:46;;;;;;;;;;;;;;;4.85;100.00;96316.91;10589220;27;2675;-69
2023/11/23 11:57:49;;;;;;;;;;;;;;;4.91;100.00;96301.91;10585712;27;2639;-69
2023/11/23 12:02:52;;;;;;;;;;;;;;;4.97;100.00;96277.03;10586781;27;2573;-68
2023/11/23 12:07:55;;;;;;;;;;;;;;;4.99;100.00;96286.41;10583567;27;2782;-68
2023/11/23 12:12:58;;;;;;;;;;;;;;;5.03;100.00;96273.44;10587140;27;4543;-70
2023/11/23 12:18:02;;;;;;;;;;;;;;;5.04;100.00;96267.88;10590611;27;2697;-69
2023/11/23 12:23:05;;;;;;;;;;;;;;;5.15;100.00;96258.28;10584424;27;2642;-68
2023/11/23 12:28:07;;;;;;;;;;;;;;;5.30;100.00;96255.22;10584580;27;2573;-68
2023/11/23 12:33:12;;;;;;;;;;;;;;;5.25;100.00;96255.09;10588913;27;2615;-68
2023/11/23 12:38:15;;;;;;;;;;;;;;;5.33;100.00;96238.75;10586863;27;2699;-68
2023/11/23 12:43:18;;;;;;;;;;;;;;;5.26;100.00;96233.53;10586672;27;2615;-69
2023/11/23 12:48:20;;;;;;;;;;;;;;;5.30;100.00;96234.69;10586201;27;2604;-69
2023/11/23 12:53:25;;;;;;;;;;;;;;;5.29;100.00;96240.28;10584540;27;2596;-69
2023/11/23 12:58:29;;;;;;;;;;;;;;;5.30;100.00;96234.69;10585395;27;3055;-68
2023/11/23 13:03:32;;;;;;;;;;;;;;;5.33;100.00;96223.56;10583156;27;2718;-69
2023/11/23 13:08:35;;;;;;;;;;;;;;;5.37;100.00;96223.94;10581180;27;2563;-68
2023/11/23 13:13:42;;;;;;;;;;;;;;;5.34;100.00;96224.38;10585257;27;4880;-69
2023/11/23 13:18:44;;;;;;;;;;;;;;;5.15;100.00;96213.81;10587922;27;2644;-70
2023/11/23 13:24:08;;;;;;;;;;;;;;;5.08;100.00;96210.41;10588715;27;2595;-68
2023/11/23 13:29:10;;;;;;;;;;;;;;;4.99;100.00;96195.00;10589654;27;2588;-69
2023/11/23 13:34:14;;;;;;;;;;;;;;;4.89;100.00;96188.34;10592488;27;2682;-68
2023/11/23 13:39:19;;;;;;;;;;;;;;;4.83;100.00;96180.47;10595388;27;2644;-67
2023/11/23 13:44:22;;;;;;;;;;;;;;;4.79;100.00;96180.13;10590477;27;2685;-68
2023/11/23 13:49:25;;;;;;;;;;;;;;;4.67;100.00;96171.28;10592662;27;2593;-69
2023/11/23 13:54:27;;;;;;;;;;;;;;;4.63;100.00;96154.13;10576356;27;2764;-69
2023/11/23 13:59:30;;;;;;;;;;;;;;;4.64;100.00;96144.28;10588294;27;2626;-70
2023/11/23 14:04:34;;;;;;;;;;;;;;;4.60;100.00;96144.75;10595509;27;2653;-73
2023/11/23 14:09:40;;;;;;;;;;;;;;;4.54;100.00;96150.16;10589107;27;2572;-74
2023/11/23 14:14:42;;;;;;;;;;;;;;;4.41;100.00;96139.69;10594859;27;4571;-69
2023/11/23 14:19:45;;;;;;;;;;;;;;;4.43;100.00;96150.94;10583682;27;2659;-68
2023/11/23 14:24:48;;;;;;;;;;;;;;;4.46;100.00;96163.81;10589771;27;2677;-70
2023/11/23 14:29:50;;;;;;;;;;;;;;;4.41;100.00;96163.66;10592717;27;2686;-69
2023/11/23 14:34:53;;;;;;;;;;;;;;;4.38;100.00;96138.28;10595823;27;2670;-70
2023/11/23 14:39:57;;;;;;;;;;;;;;;4.30;100.00;96144.75;10591621;27;2621;-68
2023/11/23 14:45:00;;;;;;;;;;;;;;;4.22;100.00;96142.41;10584112;27;2690;-68
2023/11/23 14:50:04;;;;;;;;;;;;;;;4.11;100.00;96135.16;10586332;27;2649;-69
2023/11/23 14:55:07;;;;;;;;;;;;;;;4.09;100.00;96153.22;10592106;27;2675;-69
2023/11/23 15:00:10;;;;;;;;;;;;;;;4.08;100.00;96140.94;10593898;27;2605;-68
2023/11/23 15:05:12;;;;;;;;;;;;;;;3.99;100.00;96123.66;10590416;27;2644;-69
2023/11/23 15:10:18;;;;;;;;;;;;;;;3.92;100.00;96117.59;10584618;27;2564;-67
2023/11/23 15:15:23;;;;;;;;;;;;;;;3.89;100.00;96112.75;10587281;27;2642;-68
2023/11/23 15:20:31;;;;;;;;;;;;;;;3.75;100.00;96104.91;10590764;27;2630;-69
2023/11/23 15:25:37;;;;;;;;;;;;;;;3.73;100.00;96114.94;10592090;27;2575;-68
2023/11/23 15:30:43;;;;;;;;;;;;;;;3.49;100.00;96106.00;10590255;27;2633;-67
2023/11/23 15:35:47;;;;;;;;;;;;;;;3.40;100.00;96093.25;10592184;27;2714;-68
2023/11/23 15:40:50;;;;;;;;;;;;;;;3.40;100.00;96090.56;10589451;27;2669;-70
2023/11/23 15:45:52;;;;;;;;;;;;;;;3.41;100.00;96081.56;10587417;27;2750;-69
2023/11/23 15:50:57;;;;;;;;;;;;;;;3.37;100.00;96105.13;10591887;27;2627;-70
2023/11/23 15:56:01;;;;;;;;;;;;;;;3.39;100.00;96108.38;10573831;27;2626;-69
2023/11/23 16:01:07;;;;;;;;;;;;;;;3.29;100.00;96078.00;10589351;27;2615;-69
2023/11/23 16:06:11;;;;;;;;;;;;;;;3.34;100.00;96096.78;10589260;27;2530;-69
2023/11/23 16:11:16;;;;;;;;;;;;;;;3.41;100.00;96094.84;10595588;27;2663;-68
2023/11/23 16:16:22;;;;;;;;;;;;;;;3.41;100.00;96097.50;10588269;27;5014;-74
2023/11/23 16:21:24;;;;;;;;;;;;;;;3.29;100.00;96084.13;10571729;27;2562;-68
2023/11/23 16:26:31;;;;;;;;;;;;;;;3.38;100.00;96066.09;10588758;27;2726;-68
2023/11/23 16:31:39;;;;;;;;;;;;;;;3.31;100.00;96065.31;10594902;27;2564;-69
2023/11/23 16:36:45;;;;;;;;;;;;;;;3.31;100.00;96062.66;10594607;27;2669;-68
2023/11/23 16:41:48;;;;;;;;;;;;;;;3.36;100.00;96068.94;10603774;27;2545;-67
2023/11/23 16:46:51;;;;;;;;;;;;;;;3.31;100.00;96049.38;10589527;27;2693;-68
2023/11/23 16:51:53;;;;;;;;;;;;;;;3.27;100.00;96050.88;10591936;27;2651;-69
2023/11/23 16:56:59;;;;;;;;;;;;;;;3.31;100.00;96025.47;10590412;27;2637;-69
2023/11/23 17:02:04;;;;;;;;;;;;;;;3.16;100.00;96023.19;10601043;27;2648;-68
2023/11/23 17:07:07;;;;;;;;;;;;;;;3.13;100.00;96031.59;10601943;27;2671;-69
2023/11/23 17:12:11;;;;;;;;;;;;;;;3.11;100.00;96023.81;10613536;27;4697;-70
2023/11/23 17:17:14;;;;;;;;;;;;;;;3.07;100.00;96021.84;10604001;27;2634;-74
2023/11/23 17:22:17;;;;;;;;;;;;;;;3.08;100.00;96008.34;10598329;27;2650;-73
2023/11/23 17:27:20;;;;;;;;;;;;;;;3.09;100.00;96001.19;10601065;27;2572;-72
2023/11/23 17:32:22;;;;;;;;;;;;;;;3.10;100.00;96011.59;10601889;27;2551;-71
2023/11/23 17:37:25;;;;;;;;;;;;;;;3.07;100.00;95996.09;10597404;27;2755;-68
2023/11/23 17:42:28;;;;;;;;;;;;;;;3.06;100.00;95978.56;10602910;27;2481;-68
2023/11/23 17:47:31;;;;;;;;;;;;;;;2.98;100.00;95970.84;10606528;27;2002;-68
2023/11/23 17:52:34;;;;;;;;;;;;;;;3.03;100.00;95978.97;10608667;27;2628;-67
2023/11/23 17:57:37;;;;;;;;;;;;;;;2.98;100.00;95971.66;10612564;27;2512;-67
2023/11/23 18:02:42;;;;;;;;;;;;;;;3.02;100.00;95977.34;10607273;27;1797;-68
2023/11/23 18:07:48;;;;;;;;;;;;;;;3.08;100.00;95973.81;10611245;27;1535;-68
2023/11/23 18:12:50;;;;;;;;;;;;;;;3.00;100.00;95982.09;10590017;27;4709;-68
2023/11/23 18:17:53;;;;;;;;;;;;;;;3.03;100.00;95965.69;10608084;27;2450;-66
2023/11/23 18:22:56;;;;;;;;;;;;;;;3.03;100.00;95963.03;10589911;27;1776;-66
2023/11/23 18:27:59;;;;;;;;;;;;;;;3.02;100.00;95966.75;10610492;27;1670;-73
2023/11/23 18:33:05;;;;;;;;;;;;;;;3.02;100.00;95956.13;10610780;27;1514;-68
2023/11/23 18:38:08;;;;;;;;;;;;;;;2.97;100.00;95946.16;10598066;27;1918;-67
2023/11/23 18:43:11;;;;;;;;;;;;;;;2.92;100.00;95934.56;10607190;27;2567;-67
2023/11/23 18:48:15;;;;;;;;;;;;;;;2.88;100.00;95944.03;10608761;27;1738;-66
2023/11/23 18:53:19;;;;;;;;;;;;;;;2.95;100.00;95945.56;10608251;27;2572;-68
2023/11/23 18:58:22;;;;;;;;;;;;;;;2.91;100.00;95924.97;10610737;27;1895;-68
2023/11/23 19:03:25;;;;;;;;;;;;;;;2.87;100.00;95926.47;10608401;27;1667;-68
2023/11/23 19:08:28;;;;;;;;;;;;;;;2.92;100.00;95918.63;10606308;27;1627;-68
2023/11/23 19:13:31;;;;;;;;;;;;;;;2.90;100.00;95926.00;10606346;27;4685;-71
2023/11/23 19:18:36;;;;;;;;;;;;;;;2.76;100.00;95920.03;10608962;27;1976;-69
2023/11/23 19:23:39;;;;;;;;;;;;;;;2.72;100.00;95895.78;10610307;27;1658;-67
2023/11/23 19:28:41;;;;;;;;;;;;;;;2.68;100.00;95868.06;10606847;27;1496;-68
2023/11/23 19:33:47;;;;;;;;;;;;;;;2.68;100.00;95862.75;10599320;27;2112;-71
2023/11/23 19:38:50;;;;;;;;;;;;;;;2.61;100.00;95848.75;10604027;27;1913;-70
2023/11/23 19:43:53;;;;;;;;;;;;;;;2.63;100.00;95841.38;10608355;27;1485;-73
2023/11/23 19:48:56;;;;;;;;;;;;;;;2.59;100.00;95821.59;10604888;27;2605;-73
2023/11/23 19:53:58;;;;;;;;;;;;;;;2.58;100.00;95822.66;10596919;27;2600;-70
2023/11/23 19:59:01;;;;;;;;;;;;;;;2.56;100.00;95808.81;10593905;27;2626;-75
2023/11/23 20:04:04;;;;;;;;;;;;;;;2.64;100.00;95816.44;10580585;27;2558;-70
2023/11/23 20:09:09;;;;;;;;;;;;;;;2.62;100.00;95812.41;10594584;27;2689;-74
2023/11/23 20:14:11;;;;;;;;;;;;;;;2.62;100.00;95804.44;10597168;27;4728;-73
2023/11/23 20:19:15;;;;;;;;;;;;;;;2.58;100.00;95805.91;10594518;27;2595;-76
2023/11/23 20:24:17;;;;;;;;;;;;;;;2.67;100.00;95805.41;10591982;27;3003;-73
2023/11/23 20:29:20;;;;;;;;;;;;;;;2.69;100.00;95813.94;10599069;27;2610;-77
2023/11/23 20:34:23;;;;;;;;;;;;;;;2.75;100.00;95824.72;10592782;27;2575;-76
2023/11/23 20:39:28;;;;;;;;;;;;;;;2.70;100.00;95807.59;10593667;27;2687;-69
2023/11/23 20:44:30;;;;;;;;;;;;;;;2.67;100.00;95807.22;10588614;27;2726;-67
2023/11/23 20:49:33;;;;;;;;;;;;;;;2.63;100.00;95782.97;10599247;27;2627;-71
2023/11/23 20:54:36;;;;;;;;;;;;;;;2.63;100.00;95808.72;10582087;27;2655;-68
2023/11/23 20:59:39;;;;;;;;;;;;;;;2.62;100.00;95818.53;10593767;27;2834;-69
2023/11/23 21:04:42;;;;;;;;;;;;;;;2.59;100.00;95813.66;10597805;27;3271;-69
2023/11/23 21:09:46;;;;;;;;;;;;;;;2.48;100.00;95811.72;10599540;27;2629;-69
2023/11/23 21:14:50;;;;;;;;;;;;;;;2.45;100.00;95796.25;10597678;27;4622;-67
2023/11/23 21:19:52;;;;;;;;;;;;;;;2.38;100.00;95764.50;10593879;27;2676;-70
2023/11/23 21:24:56;;;;;;;;;;;;;;;2.29;100.00;95775.63;10589290;27;2604;-67
2023/11/23 21:29:59;;;;;;;;;;;;;;;2.27;100.00;95767.09;10598667;27;2630;-70
2023/11/23 21:35:02;;;;;;;;;;;;;;;2.27;100.00;95759.94;10598830;27;2646;-69
2023/11/23 21:40:05;;;;;;;;;;;;;;;2.22;100.00;95743.06;10598676;27;2638;-71
2023/11/23 21:45:08;;;;;;;;;;;;;;;2.33;100.00;95710.50;10594564;27;2641;-69
2023/11/23 21:50:11;;;;;;;;;;;;;;;2.30;100.00;95698.50;10593842;27;2655;-68
2023/11/23 21:55:13;;;;;;;;;;;;;;;2.32;100.00;95695.63;10594021;27;2618;-69
2023/11/23 22:00:18;;;;;;;;;;;;;;;2.52;100.00;95690.84;10578720;27;2708;-69
2023/11/23 22:05:21;;;;;;;;;;;;;;;2.63;100.00;95690.09;10595106;27;2666;-68
2023/11/23 22:10:24;;;;;;;;;;;;;;;2.67;100.00;95683.31;10598607;27;2619;-70
2023/11/23 22:15:27;;;;;;;;;;;;;;;2.70;100.00;95674.88;10596802;27;4629;-73
2023/11/23 22:20:29;;;;;;;;;;;;;;;2.75;100.00;95657.47;10597887;27;2576;-73
2023/11/23 22:25:32;;;;;;;;;;;;;;;2.83;100.00;95634.06;10598846;27;2728;-69
2023/11/23 22:30:39;;;;;;;;;;;;;;;2.95;100.00;95611.00;10596046;27;2600;-67
2023/11/23 22:35:44;;;;;;;;;;;;;;;2.90;100.00;95604.75;10597481;27;2607;-68
2023/11/23 22:40:46;;;;;;;;;;;;;;;3.02;100.00;95616.19;10590451;27;2821;-69
2023/11/23 22:45:49;;;;;;;;;;;;;;;2.93;100.00;95599.00;10592600;27;2551;-68
2023/11/23 22:50:52;;;;;;;;;;;;;;;2.97;100.00;95597.47;10592953;27;2529;-68
2023/11/23 22:55:55;;;;;;;;;;;;;;;2.97;100.00;95586.84;10591070;27;2573;-70
2023/11/23 23:00:57;;;;;;;;;;;;;;;2.95;100.00;95547.28;10594474;27;2615;-69
2023/11/23 23:06:01;;;;;;;;;;;;;;;2.98;100.00;95532.72;10591341;27;2671;-72
2023/11/23 23:11:04;;;;;;;;;;;;;;;2.98;100.00;95511.47;10589236;27;2641;-75
2023/11/23 23:16:07;;;;;;;;;;;;;;;2.95;100.00;95503.97;10589453;27;4818;-67
2023/11/23 23:21:10;;;;;;;;;;;;;;;3.05;100.00;95488.25;10588103;27;3191;-67
2023/11/23 23:26:13;;;;;;;;;;;;;;;3.13;100.00;95501.19;10589782;27;2670;-67
2023/11/23 23:31:19;;;;;;;;;;;;;;;3.19;100.00;95465.72;10590763;27;2682;-68
2023/11/23 23:36:22;;;;;;;;;;;;;;;3.37;100.00;95453.31;10593629;27;2719;-68
2023/11/23 23:41:27;;;;;;;;;;;;;;;3.63;100.00;95455.44;10588469;27;2630;-68
2023/11/23 23:46:30;;;;;;;;;;;;;;;3.84;100.00;95447.81;10590723;27;2622;-68
2023/11/23 23:51:32;;;;;;;;;;;;;;;3.92;100.00;95442.09;10591911;27;2563;-68
2023/11/23 23:56:38;;;;;;;;;;;;;;;4.04;100.00;95442.84;10588735;27;2674;-68
